メインページ
METAR-TAF:

METAR-TAF

空港 :

チタ, ロシア

カダラ空港

緯度: 52-05N, 経度: 113-29E, 海抜: 685m

現時点の気象観測

当レポートは31分前の16:00(UTC)に作成
無風
気温 17°C
湿度 55%
気圧 1011 hPa
視程10km以上

METAR: UIAA 221600Z 00000MPS 9999 NSC 17/08 Q1011 R29/CLRD70 NOSIG RMK QFE700/0933

時間: 01:31 (16:31 UTC)

予報

当レポートは2時間31分前の14:00(UTC)に作成
予報は22日の 15時(UTC)から 23日の 15時(UTC)まで有効
西/北西の風 6kt
視程10km以上

TAF: UIAA 221400Z 2215/2315 30003MPS 9999 NSC

4,000以上の空港の気象観測と天気予報(METAR報とTAF報)

利用可能な観測所は地図上に黄色い丸と赤い丸で示す。

丸の上にカーソルを重ねると観測所名を参照できる。

次にクリックすると気象観測と天気予報を参照できる。

マップの切り替え:黒色「×」印の緑ボタンをクリックして拡大、「-」印の緑ボタンをクリックして縮小、緑色の三角印をクリックして隣りの地図に切り替え


METAR-TAF: